Time;durP1;ratioP1;P1;durP2;ratioP2;P2;SDS_P1;SDS_P2;PMS_P1;PMS_P2;Temp;Humidity;BMP_temperature;BMP_pressure;BME280_temperature;BME280_humidity;BME280_pressure;Samples;Min_cycle;Max_cycle;Signal;HPM_P1;HPM_P2
2023/04/25 00:01:59;;;;;;;150.30;139.43;;;10.60;99.90;;;;;;4988996;28;20141;-84
2023/04/25 00:04:27;;;;;;;103.10;94.30;;;10.60;99.90;;;;;;4990096;28;20125;-83
2023/04/25 00:06:53;;;;;;;123.78;113.30;;;12.50;99.90;;;;;;4984904;28;20513;-83
2023/04/25 00:09:19;;;;;;;175.38;162.50;;;10.50;99.90;;;;;;5002375;28;20577;-84
2023/04/25 00:11:45;;;;;;;82.20;73.95;;;11.30;99.90;;;;;;4996913;28;20125;-83
2023/04/25 00:14:10;;;;;;;79.32;71.90;;;10.50;99.90;;;;;;4999946;28;20046;-83
2023/04/25 00:16:36;;;;;;;78.75;70.20;;;10.50;99.90;;;;;;4978345;28;20033;-84
2023/04/25 00:19:02;;;;;;;54.78;48.45;;;10.50;99.90;;;;;;4992334;28;20111;-83
2023/04/25 00:21:28;;;;;;;155.57;144.23;;;10.50;99.90;;;;;;5008866;28;20042;-83
2023/04/25 00:23:55;;;;;;;69.50;63.03;;;10.50;99.90;;;;;;5008893;28;20030;-83
2023/04/25 00:26:21;;;;;;;122.90;113.85;;;10.30;99.90;;;;;;5008489;28;20034;-83
2023/04/25 00:28:47;;;;;;;119.65;110.45;;;10.30;99.90;;;;;;4993021;28;20418;-83
2023/04/25 00:31:13;;;;;;;165.13;152.88;;;10.20;99.90;;;;;;4990945;28;20461;-83
2023/04/25 00:33:39;;;;;;;73.13;65.95;;;10.10;99.90;;;;;;5008781;28;20045;-83
2023/04/25 00:36:05;;;;;;;195.63;182.18;;;10.10;99.90;;;;;;5008799;28;20041;-83
2023/04/25 00:38:31;;;;;;;66.93;59.85;;;10.20;99.90;;;;;;4991901;28;20045;-83
2023/04/25 00:40:57;;;;;;;68.78;62.25;;;10.20;99.90;;;;;;5008606;28;20544;-83
2023/04/25 00:43:27;;;;;;;115.20;106.50;;;10.20;99.90;;;;;;4991743;28;20044;-83
2023/04/25 00:45:53;;;;;;;72.28;65.97;;;11.30;99.90;;;;;;5008726;28;20046;-83
2023/04/25 00:48:21;;;;;;;85.07;78.47;;;10.20;99.90;;;;;;5007599;28;20048;-83
2023/04/25 00:50:56;;;;;;;68.28;62.28;;;10.30;99.90;;;;;;5008922;28;20476;-83
2023/04/25 00:53:23;;;;;;;95.28;87.85;;;11.50;99.90;;;;;;4991541;28;20049;-83
2023/04/25 00:55:52;;;;;;;53.50;48.65;;;10.40;99.90;;;;;;5008604;28;20046;-83
2023/04/25 00:58:19;;;;;;;49.58;45.28;;;10.30;99.90;;;;;;5008293;28;20112;-83
2023/04/25 01:00:46;;;;;;;79.68;73.18;;;10.20;99.90;;;;;;4991692;28;20120;-83
2023/04/25 01:03:13;;;;;;;57.20;52.50;;;10.00;99.90;;;;;;5007567;28;20042;-83
2023/04/25 01:05:41;;;;;;;65.30;59.90;;;10.00;99.90;;;;;;5005080;28;20038;-83
2023/04/25 01:08:07;;;;;;;99.82;92.78;;;11.50;99.90;;;;;;5008600;28;20046;-83
2023/04/25 01:10:32;;;;;;;65.18;59.67;;;10.30;99.90;;;;;;5008303;28;20418;-83
2023/04/25 01:12:58;;;;;;;90.43;83.43;;;10.10;99.90;;;;;;4992142;28;20494;-83
2023/04/25 01:15:24;;;;;;;98.88;91.47;;;11.90;99.90;;;;;;5008279;28;20445;-83
2023/04/25 01:17:49;;;;;;;68.35;62.40;;;10.00;99.90;;;;;;5006038;28;20418;-83
2023/04/25 01:20:16;;;;;;;91.45;84.47;;;10.30;99.90;;;;;;4992217;28;20042;-83
2023/04/25 01:22:42;;;;;;;52.75;48.15;;;10.00;99.90;;;;;;4992408;28;20038;-83
2023/04/25 01:25:09;;;;;;;112.07;103.75;;;11.50;99.90;;;;;;4980302;28;20517;-83
2023/04/25 01:27:36;;;;;;;109.25;99.95;;;10.00;99.90;;;;;;4972507;28;20081;-83
2023/04/25 01:30:02;;;;;;;113.22;104.85;;;10.90;99.90;;;;;;4976936;28;20046;-83
2023/04/25 01:32:28;;;;;;;79.90;72.63;;;10.00;99.90;;;;;;4978211;28;20033;-83
2023/04/25 01:34:53;;;;;;;64.97;60.03;;;10.00;99.90;;;;;;5012457;28;20056;-83
2023/04/25 01:37:19;;;;;;;64.95;59.28;;;11.50;99.90;;;;;;4996187;28;20054;-83
2023/04/25 01:39:45;;;;;;;118.50;110.18;;;11.80;99.90;;;;;;4995469;28;20155;-83
2023/04/25 01:42:10;;;;;;;131.93;123.07;;;10.00;99.90;;;;;;4994742;28;20497;-83
2023/04/25 01:44:36;;;;;;;72.03;65.53;;;10.90;99.90;;;;;;4996153;28;20125;-83
2023/04/25 01:47:02;;;;;;;56.65;52.10;;;10.00;99.90;;;;;;4974846;28;20061;-83
2023/04/25 01:49:27;;;;;;;98.15;89.95;;;9.80;99.90;;;;;;4992595;28;20046;-83
2023/04/25 01:51:53;;;;;;;65.95;60.80;;;9.50;1.00;;;;;;5000434;28;20401;-83
2023/04/25 01:54:19;;;;;;;91.63;84.70;;;9.30;1.00;;;;;;5011817;28;20394;-83
2023/04/25 01:56:51;;;;;;;82.07;75.35;;;9.10;1.00;;;;;;4995203;28;20124;-83
2023/04/25 01:59:18;;;;;;;122.22;114.30;;;10.80;1.00;;;;;;4995438;28;20411;-83
2023/04/25 02:01:43;;;;;;;142.18;132.70;;;8.80;1.00;;;;;;5009482;28;20418;-83
2023/04/25 02:04:09;;;;;;;119.95;111.60;;;10.60;1.00;;;;;;4995409;28;20129;-83
2023/04/25 02:06:34;;;;;;;62.92;57.67;;;8.80;1.00;;;;;;4995324;28;20092;-83
2023/04/25 02:09:00;;;;;;;51.45;47.45;;;8.80;1.00;;;;;;4995295;28;20040;-83
2023/04/25 02:11:26;;;;;;;50.20;45.83;;;8.90;1.00;;;;;;5011059;28;20042;-83
2023/04/25 02:13:51;;;;;;;58.38;53.88;;;8.90;1.00;;;;;;5011762;28;20034;-83
2023/04/25 02:16:17;;;;;;;55.63;51.17;;;9.00;1.00;;;;;;4993853;28;20042;-83
2023/04/25 02:18:44;;;;;;;102.00;94.93;;;9.10;1.00;;;;;;4995347;28;20121;-83
2023/04/25 02:21:11;;;;;;;101.88;93.70;;;9.10;1.00;;;;;;4989727;28;20050;-83
2023/04/25 02:23:37;;;;;;;69.15;62.70;;;9.20;1.00;;;;;;4991737;28;20043;-83
2023/04/25 02:26:03;;;;;;;61.47;56.42;;;9.30;1.00;;;;;;5000390;28;20486;-83
2023/04/25 02:28:28;;;;;;;121.72;112.50;;;9.40;99.90;;;;;;4994839;28;20455;-83
2023/04/25 02:30:54;;;;;;;81.07;74.88;;;9.60;99.90;;;;;;5010501;28;20490;-83
2023/04/25 02:33:20;;;;;;;82.75;76.25;;;11.80;99.90;;;;;;5010815;28;20464;-83
2023/04/25 02:35:46;;;;;;;47.17;42.60;;;9.80;1.00;;;;;;5010068;28;20081;-83
2023/04/25 02:38:12;;;;;;;90.60;83.35;;;11.00;1.00;;;;;;4991509;28;20089;-83
2023/04/25 02:40:37;;;;;;;67.38;62.10;;;9.70;99.90;;;;;;4973876;28;20046;-83
2023/04/25 02:43:03;;;;;;;58.30;52.20;;;9.70;99.90;;;;;;4975112;28;20047;-83
2023/04/25 02:45:29;;;;;;;67.95;62.35;;;9.60;99.90;;;;;;4976382;28;20034;-83
2023/04/25 02:47:54;;;;;;;57.53;52.80;;;9.60;99.90;;;;;;4986642;28;20039;-83
2023/04/25 02:50:20;;;;;;;93.72;86.55;;;9.40;99.90;;;;;;4991029;28;20046;-83
2023/04/25 02:52:46;;;;;;;70.05;64.82;;;9.40;99.90;;;;;;4974938;28;20061;-83
2023/04/25 02:55:12;;;;;;;109.43;101.22;;;9.30;99.90;;;;;;4975195;28;20042;-83
2023/04/25 02:57:38;;;;;;;61.80;56.53;;;8.90;99.90;;;;;;4994425;28;20057;-83
2023/04/25 03:00:05;;;;;;;193.93;181.43;;;8.90;1.00;;;;;;5010960;28;20277;-83
2023/04/25 03:02:30;;;;;;;61.78;56.22;;;8.80;1.00;;;;;;5009214;28;20053;-83
2023/04/25 03:04:56;;;;;;;112.05;103.80;;;8.90;1.00;;;;;;4983571;28;20053;-83
2023/04/25 03:07:21;;;;;;;68.35;62.88;;;9.00;7.70;;;;;;5009627;28;20120;-83
2023/04/25 03:09:47;;;;;;;43.97;39.17;;;11.00;11.60;;;;;;4993618;28;20176;-83
2023/04/25 03:12:13;;;;;;;119.63;111.95;;;9.20;15.50;;;;;;4994173;28;20050;-83
2023/04/25 03:14:38;;;;;;;57.00;51.85;;;10.50;1.00;;;;;;4994051;28;20124;-83
2023/04/25 03:17:04;;;;;;;95.30;88.03;;;10.20;1.00;;;;;;4992108;28;20379;-83
2023/04/25 03:19:30;;;;;;;102.97;94.88;;;9.40;1.00;;;;;;4994052;28;20042;-83
2023/04/25 03:21:55;;;;;;;46.03;42.17;;;11.30;99.90;;;;;;5003898;28;20108;-83
2023/04/25 03:24:21;;;;;;;98.78;91.38;;;9.40;99.90;;;;;;4994053;28;20121;-83
2023/04/25 03:26:47;;;;;;;52.35;48.03;;;11.00;99.90;;;;;;4993576;28;20452;-83
2023/04/25 03:29:13;;;;;;;84.82;78.35;;;10.50;99.90;;;;;;5010069;28;20574;-83
2023/04/25 03:31:38;;;;;;;67.75;62.50;;;9.60;99.90;;;;;;5007610;28;20413;-83
2023/04/25 03:34:04;;;;;;;100.80;93.35;;;9.50;99.90;;;;;;4974131;28;20408;-83
2023/04/25 03:36:29;;;;;;;62.97;57.13;;;9.60;99.90;;;;;;4990293;28;20046;-83
2023/04/25 03:38:55;;;;;;;67.40;61.28;;;9.50;99.90;;;;;;4999111;28;20054;-83
2023/04/25 03:41:21;;;;;;;151.20;141.15;;;9.50;1.00;;;;;;5008873;28;20046;-83
2023/04/25 03:43:46;;;;;;;61.65;56.60;;;9.50;1.00;;;;;;5009847;28;20041;-83
2023/04/25 03:46:12;;;;;;;46.40;42.60;;;9.40;1.00;;;;;;5008278;28;20505;-83
2023/04/25 03:48:37;;;;;;;52.90;48.75;;;9.30;1.00;;;;;;4993639;28;20065;-83
2023/04/25 03:51:03;;;;;;;50.85;46.38;;;9.30;1.00;;;;;;5007474;28;20152;-83
2023/04/25 03:53:28;;;;;;;118.97;110.70;;;9.40;1.00;;;;;;4982086;28;20482;-83
2023/04/25 03:55:54;;;;;;;88.97;81.82;;;9.50;1.00;;;;;;4979463;28;20049;-83
2023/04/25 03:58:20;;;;;;;65.13;60.35;;;9.30;1.00;;;;;;4973465;28;20054;-83
2023/04/25 04:00:45;;;;;;;106.15;99.15;;;10.70;99.90;;;;;;4992507;28;20576;-83
2023/04/25 04:03:11;;;;;;;133.85;124.18;;;9.30;1.00;;;;;;4990172;28;20057;-83
2023/04/25 04:05:37;;;;;;;126.53;116.63;;;9.20;1.00;;;;;;4993295;28;20077;-83
2023/04/25 04:08:02;;;;;;;55.63;50.90;;;8.90;70.00;;;;;;4993200;28;20044;-83
2023/04/25 04:10:28;;;;;;;195.30;182.95;;;8.70;99.90;;;;;;4993002;28;20108;-83
2023/04/25 04:12:54;;;;;;;70.55;64.97;;;8.60;99.90;;;;;;4993248;28;20050;-83
2023/04/25 04:15:19;;;;;;;127.70;118.88;;;10.30;99.90;;;;;;4973508;28;20534;-83
2023/04/25 04:17:46;;;;;;;119.38;110.63;;;8.50;99.90;;;;;;4989486;28;20073;-83
2023/04/25 04:20:12;;;;;;;77.55;71.07;;;8.60;99.90;;;;;;5008944;28;20045;-83
2023/04/25 04:22:37;;;;;;;47.67;43.63;;;8.60;1.00;;;;;;5009193;28;20425;-83
2023/04/25 04:25:05;;;;;;;87.05;81.00;;;9.70;1.00;;;;;;4993120;28;20049;-83
2023/04/25 04:27:31;;;;;;;161.98;151.50;;;8.70;1.00;;;;;;4977750;28;20080;-83
2023/04/25 04:29:57;;;;;;;89.82;83.30;;;8.70;1.00;;;;;;4989676;28;20045;-83
2023/04/25 04:32:23;;;;;;;46.50;42.40;;;8.80;1.00;;;;;;4987798;28;20088;-83
2023/04/25 04:34:49;;;;;;;83.65;77.75;;;8.70;99.90;;;;;;4973225;28;20149;-83
2023/04/25 04:37:15;;;;;;;118.65;111.40;;;10.30;99.90;;;;;;4985117;28;20604;-83
2023/04/25 04:39:40;;;;;;;107.40;100.38;;;8.70;99.90;;;;;;5008580;28;20065;-83
2023/04/25 04:42:06;;;;;;;52.78;48.53;;;8.70;13.90;;;;;;4992587;28;20057;-83
2023/04/25 04:44:32;;;;;;;154.40;144.63;;;8.80;1.00;;;;;;4992087;28;20464;-83
2023/04/25 04:46:58;;;;;;;188.52;177.25;;;8.90;1.00;;;;;;5007458;28;20042;-83
2023/04/25 04:49:24;;;;;;;148.27;138.30;;;9.00;1.00;;;;;;4987668;28;20029;-83
2023/04/25 04:51:50;;;;;;;93.00;86.57;;;9.00;1.00;;;;;;5006358;28;20375;-83
2023/04/25 04:54:16;;;;;;;175.35;163.43;;;8.80;1.00;;;;;;5000857;28;21487;-83
2023/04/25 04:56:41;;;;;;;162.10;151.93;;;8.90;1.00;;;;;;4981158;28;20040;-83
2023/04/25 04:59:07;;;;;;;55.53;51.35;;;8.90;1.00;;;;;;4994246;28;20052;-83
2023/04/25 05:01:35;;;;;;;54.10;49.78;;;8.90;1.00;;;;;;5004572;28;20030;-83
2023/04/25 05:04:00;;;;;;;61.97;57.08;;;9.00;1.00;;;;;;4997229;28;20630;-83
2023/04/25 05:06:28;;;;;;;118.60;110.38;;;9.00;1.00;;;;;;4992609;28;20046;-83
2023/04/25 05:08:54;;;;;;;100.05;93.22;;;9.20;19.90;;;;;;4993924;28;20042;-83
2023/04/25 05:11:20;;;;;;;102.63;95.80;;;9.10;55.00;;;;;;4984881;28;20044;-83
2023/04/25 05:13:46;;;;;;;91.93;85.03;;;9.20;76.00;;;;;;5014853;28;20045;-83
2023/04/25 05:16:13;;;;;;;89.35;82.97;;;11.10;99.40;;;;;;4995237;28;20038;-83
2023/04/25 05:18:39;;;;;;;51.22;46.83;;;11.20;99.90;;;;;;4979733;28;20038;-83
2023/04/25 05:21:05;;;;;;;110.32;102.00;;;9.20;99.90;;;;;;5002657;28;20111;-83
2023/04/25 05:23:32;;;;;;;122.95;114.88;;;9.20;85.90;;;;;;4997448;28;20498;-83
2023/04/25 05:25:58;;;;;;;89.40;82.85;;;9.20;37.90;;;;;;4995647;28;20508;-83
2023/04/25 05:28:24;;;;;;;100.80;93.85;;;9.00;1.00;;;;;;5001163;28;20034;-84
2023/04/25 05:30:50;;;;;;;52.17;47.90;;;9.10;1.00;;;;;;4986811;28;20056;-84
2023/04/25 05:33:15;;;;;;;64.68;59.67;;;9.10;1.00;;;;;;5000475;28;20042;-84
2023/04/25 05:35:42;;;;;;;97.38;90.07;;;9.10;1.00;;;;;;4993246;28;20048;-84
2023/04/25 05:38:07;;;;;;;143.85;134.25;;;9.10;1.00;;;;;;5005465;28;20112;-84
2023/04/25 05:40:33;;;;;;;111.75;104.05;;;9.10;1.00;;;;;;5012179;28;20046;-84
2023/04/25 05:42:58;;;;;;;88.63;82.38;;;9.10;99.90;;;;;;4987079;28;20457;-84
2023/04/25 05:45:24;;;;;;;104.07;96.38;;;9.00;99.90;;;;;;5002538;28;20045;-84
2023/04/25 05:47:50;;;;;;;97.43;90.32;;;9.10;99.90;;;;;;4989323;28;20048;-85
2023/04/25 05:50:15;;;;;;;147.68;138.10;;;9.20;99.90;;;;;;5001158;28;20514;-84
2023/04/25 05:52:41;;;;;;;88.97;82.40;;;9.20;99.90;;;;;;4977156;28;20042;-84
2023/04/25 05:55:07;;;;;;;81.20;74.50;;;9.30;99.90;;;;;;4980231;28;20080;-85
2023/04/25 05:57:32;;;;;;;101.43;94.57;;;9.40;1.00;;;;;;4993390;28;20030;-84
2023/04/25 05:59:58;;;;;;;107.50;99.57;;;11.20;1.00;;;;;;4993062;28;20050;-84
2023/04/25 06:02:23;;;;;;;64.45;59.20;;;9.40;1.00;;;;;;4995655;28;20030;-85
2023/04/25 06:04:50;;;;;;;86.63;79.65;;;9.40;99.90;;;;;;4992218;28;20069;-85
2023/04/25 06:07:16;;;;;;;66.30;59.33;;;9.50;1.00;;;;;;5008619;28;20046;-85
2023/04/25 06:09:43;;;;;;;124.93;115.53;;;9.50;1.00;;;;;;4990211;28;20068;-85
2023/04/25 06:12:08;;;;;;;71.05;66.00;;;9.60;1.00;;;;;;4985804;28;20084;-85
2023/04/25 06:14:34;;;;;;;57.97;53.67;;;9.50;1.00;;;;;;4980760;28;20050;-84
2023/04/25 06:17:06;;;;;;;97.57;90.70;;;9.60;99.90;;;;;;4993800;28;20050;-84
2023/04/25 06:19:32;;;;;;;58.78;54.13;;;9.50;99.90;;;;;;5005570;28;21235;-84
2023/04/25 06:21:58;;;;;;;115.97;108.32;;;9.60;99.90;;;;;;5011173;28;20352;-85
2023/04/25 06:24:24;;;;;;;136.07;127.28;;;11.50;99.90;;;;;;5005309;28;20041;-84
2023/04/25 06:26:49;;;;;;;58.00;52.58;;;9.90;99.90;;;;;;4993110;28;20522;-84
2023/04/25 06:29:15;;;;;;;48.28;44.72;;;9.70;99.90;;;;;;4995064;28;20034;-83
2023/04/25 06:31:40;;;;;;;62.28;57.50;;;9.70;99.90;;;;;;4974114;28;20439;-84
2023/04/25 06:34:06;;;;;;;196.15;183.73;;;9.80;99.90;;;;;;4991130;28;20469;-84
2023/04/25 06:36:32;;;;;;;194.55;182.23;;;9.90;99.90;;;;;;4991817;28;20054;-84
2023/04/25 06:38:57;;;;;;;190.05;178.00;;;9.80;99.90;;;;;;4990271;28;20053;-83
2023/04/25 06:41:23;;;;;;;188.82;176.18;;;9.50;99.90;;;;;;4991790;28;20074;-85
2023/04/25 06:43:48;;;;;;;78.07;71.45;;;9.20;1.00;;;;;;5008438;28;20524;-83
2023/04/25 06:46:14;;;;;;;186.02;174.13;;;8.80;1.00;;;;;;4978319;28;20593;-83
2023/04/25 06:48:40;;;;;;;186.38;174.48;;;8.50;49.50;;;;;;4991801;28;20050;-83
2023/04/25 06:51:05;;;;;;;62.20;57.70;;;8.20;99.90;;;;;;5009830;28;20048;-84
2023/04/25 06:53:31;;;;;;;204.55;191.68;;;8.20;99.90;;;;;;4979947;28;20045;-84
2023/04/25 06:55:56;;;;;;;53.92;49.25;;;8.20;99.90;;;;;;4991996;28;20077;-82
2023/04/25 06:58:26;;;;;;;44.90;40.97;;;8.20;1.00;;;;;;4982268;28;20053;-82
2023/04/25 07:00:51;;;;;;;59.80;55.58;;;8.20;1.00;;;;;;4986006;28;20449;-82
2023/04/25 07:03:17;;;;;;;77.82;71.63;;;8.30;1.00;;;;;;4991421;28;20133;-82
2023/04/25 07:05:42;;;;;;;104.53;97.07;;;9.60;29.50;;;;;;4975899;28;20034;-82
2023/04/25 07:08:08;;;;;;;110.25;102.10;;;8.60;99.90;;;;;;4982736;28;20124;-82
2023/04/25 07:10:33;;;;;;;125.72;117.13;;;8.90;99.90;;;;;;4994130;28;20498;-83
2023/04/25 07:13:00;;;;;;;90.03;83.78;;;10.80;99.90;;;;;;4983524;28;20046;-82
2023/04/25 07:15:25;;;;;;;46.35;42.38;;;9.20;91.50;;;;;;5019782;28;20759;-83
2023/04/25 07:17:51;;;;;;;137.60;128.75;;;11.10;1.00;;;;;;5015843;28;20042;-83
2023/04/25 07:20:17;;;;;;;67.13;62.00;;;9.30;1.00;;;;;;5001534;28;20042;-82
2023/04/25 07:22:42;;;;;;;75.25;69.95;;;8.90;1.00;;;;;;4979852;28;20121;-82
2023/04/25 07:25:08;;;;;;;83.88;77.53;;;8.60;1.00;;;;;;5003560;28;20425;-82
2023/04/25 07:27:34;;;;;;;123.13;115.15;;;8.30;99.90;;;;;;5008743;28;20046;-82
2023/04/25 07:30:00;;;;;;;126.70;118.55;;;9.50;99.90;;;;;;4992666;28;20412;-82
2023/04/25 07:32:26;;;;;;;157.93;148.20;;;8.40;99.90;;;;;;5008332;28;20038;-82
2023/04/25 07:34:52;;;;;;;143.02;133.40;;;8.50;1.00;;;;;;4993103;28;20045;-82
2023/04/25 07:37:18;;;;;;;104.70;97.55;;;8.70;1.00;;;;;;5010026;28;20045;-83
2023/04/25 07:39:46;;;;;;;95.25;88.60;;;8.80;1.00;;;;;;4987871;28;20414;-83
2023/04/25 07:42:12;;;;;;;96.05;89.68;;;9.00;99.90;;;;;;5003722;28;20045;-82
2023/04/25 07:44:42;;;;;;;69.40;64.15;;;9.20;99.90;;;;;;5006355;28;20148;-82
2023/04/25 07:47:08;;;;;;;126.45;118.25;;;9.30;99.90;;;;;;4991757;28;20515;-82
2023/04/25 07:49:35;;;;;;;91.00;84.07;;;9.50;99.90;;;;;;4992955;28;20041;-83
2023/04/25 07:52:01;;;;;;;80.18;73.75;;;9.90;99.90;;;;;;5008460;28;20559;-83
2023/04/25 07:54:27;;;;;;;50.28;45.50;;;10.30;99.90;;;;;;4993296;28;20560;-83
2023/04/25 07:56:53;;;;;;;111.38;103.82;;;10.40;18.00;;;;;;4984362;28;20033;-83
2023/04/25 07:59:18;;;;;;;144.40;134.77;;;10.60;1.00;;;;;;5000178;28;20046;-85
2023/04/25 08:01:44;;;;;;;97.97;90.88;;;10.70;1.00;;;;;;5000066;28;20077;-83
2023/04/25 08:04:10;;;;;;;73.10;67.55;;;11.00;1.00;;;;;;5003229;28;20421;-83
2023/04/25 08:06:35;;;;;;;151.65;141.50;;;10.80;1.00;;;;;;5002782;28;20045;-83
2023/04/25 08:09:02;;;;;;;92.70;86.03;;;10.70;1.00;;;;;;4984760;28;20505;-83
2023/04/25 08:11:28;;;;;;;115.97;108.25;;;10.80;99.90;;;;;;4988585;28;20412;-83
2023/04/25 08:13:54;;;;;;;163.10;152.48;;;11.00;99.90;;;;;;5009460;28;20038;-82
2023/04/25 08:16:19;;;;;;;115.22;107.30;;;11.10;99.90;;;;;;5006141;28;20073;-82
2023/04/25 08:18:45;;;;;;;133.48;123.18;;;12.10;99.90;;;;;;5000558;28;20060;-83
2023/04/25 08:21:11;;;;;;;91.60;85.15;;;12.10;99.90;;;;;;4989331;28;20537;-84
2023/04/25 08:23:37;;;;;;;106.85;99.30;;;12.50;99.90;;;;;;4987167;28;20030;-84
2023/04/25 08:26:04;;;;;;;58.90;54.30;;;11.80;99.90;;;;;;4981104;28;20037;-84
2023/04/25 08:28:30;;;;;;;80.07;74.15;;;12.40;99.90;;;;;;4990422;28;20104;-84
2023/04/25 08:30:56;;;;;;;101.60;94.47;;;11.50;99.90;;;;;;4976430;28;20080;-83
2023/04/25 08:33:21;;;;;;;53.03;48.75;;;12.60;99.90;;;;;;4989939;28;20502;-83
2023/04/25 08:35:47;;;;;;;77.45;71.55;;;11.00;99.90;;;;;;4995336;28;20034;-83
2023/04/25 08:38:13;;;;;;;85.95;79.70;;;12.70;99.90;;;;;;4988826;28;20101;-83
2023/04/25 08:40:39;;;;;;;49.05;44.65;;;12.20;99.90;;;;;;4976733;28;20152;-84
2023/04/25 08:43:11;;;;;;;132.82;124.00;;;10.40;99.90;;;;;;4974496;28;20042;-83
2023/04/25 08:45:41;;;;;;;51.70;46.80;;;11.60;99.90;;;;;;5007689;28;20041;-84
2023/04/25 08:48:15;;;;;;;155.73;145.57;;;10.20;99.90;;;;;;4989034;28;20045;-84
2023/04/25 08:50:45;;;;;;;166.07;155.65;;;10.10;99.90;;;;;;5001102;28;20104;-84
2023/04/25 08:53:18;;;;;;;112.07;104.28;;;9.90;99.90;;;;;;4977338;28;20550;-86
2023/04/25 08:55:44;;;;;;;171.20;159.07;;;10.70;99.90;;;;;;4983854;28;20522;-85
2023/04/25 08:58:11;;;;;;;62.15;57.33;;;9.10;1.00;;;;;;5008190;28;20042;-84
2023/04/25 09:00:37;;;;;;;63.70;58.88;;;8.80;1.00;;;;;;4988673;28;20095;-83
2023/04/25 09:03:03;;;;;;;177.32;165.85;;;8.50;99.90;;;;;;5007562;28;20582;-83
2023/04/25 09:05:29;;;;;;;110.80;102.90;;;8.30;99.90;;;;;;4990470;28;20407;-83
2023/04/25 09:07:56;;;;;;;78.65;72.60;;;8.30;1.00;;;;;;4994402;28;20069;-83
2023/04/25 09:10:22;;;;;;;166.95;155.98;;;8.80;1.00;;;;;;4992098;28;20053;-84
2023/04/25 09:13:12;;;;;;;79.43;73.72;;;8.20;19.00;;;;;;4973918;28;20517;-84
2023/04/25 09:15:49;;;;;;;88.63;82.45;;;8.30;99.90;;;;;;4973593;28;20037;-83
2023/04/25 09:18:23;;;;;;;60.22;55.53;;;8.50;99.90;;;;;;4996119;28;20037;-83
2023/04/25 09:20:49;;;;;;;110.90;102.85;;;8.80;1.00;;;;;;4991693;28;20038;-83
2023/04/25 09:23:15;;;;;;;97.45;90.75;;;9.30;64.90;;;;;;4975140;28;20121;-83
2023/04/25 09:25:42;;;;;;;133.13;124.50;;;9.60;99.90;;;;;;4989529;28;20042;-83
2023/04/25 09:28:08;;;;;;;127.35;118.30;;;9.80;1.00;;;;;;4975881;28;20058;-83
2023/04/25 09:30:36;;;;;;;93.88;87.40;;;11.70;1.00;;;;;;4996360;28;20041;-83
2023/04/25 09:33:06;;;;;;;95.03;88.55;;;9.70;99.90;;;;;;5007125;28;20456;-83
2023/04/25 09:35:43;;;;;;;58.70;53.40;;;9.80;99.90;;;;;;4991242;28;20076;-83
2023/04/25 09:38:12;;;;;;;99.72;93.05;;;10.10;99.90;;;;;;4988429;28;20093;-83
2023/04/25 09:40:45;;;;;;;43.25;39.83;;;10.20;1.00;;;;;;4983878;28;20133;-83
2023/04/25 09:43:18;;;;;;;132.10;123.10;;;10.20;99.90;;;;;;4990965;28;20037;-84
2023/04/25 09:45:45;;;;;;;101.18;94.20;;;10.50;99.90;;;;;;5006847;28;20041;-83
2023/04/25 09:48:12;;;;;;;149.98;140.18;;;10.40;48.70;;;;;;5001251;28;20096;-84
2023/04/25 09:50:39;;;;;;;85.22;79.05;;;11.10;1.00;;;;;;5002889;28;20092;-84
2023/04/25 09:53:05;;;;;;;117.78;109.50;;;10.30;1.00;;;;;;5011719;28;20041;-83
2023/04/25 09:55:34;;;;;;;161.70;150.40;;;10.50;1.00;;;;;;5010870;28;20061;-84
2023/04/25 09:58:05;;;;;;;130.45;121.57;;;12.20;1.00;;;;;;4992500;28;20042;-84
2023/04/25 10:00:32;;;;;;;126.40;118.05;;;10.90;1.00;;;;;;4992890;28;20608;-85
2023/04/25 10:03:03;;;;;;;101.85;94.50;;;10.90;1.00;;;;;;4993401;28;20120;-84
2023/04/25 10:05:31;;;;;;;130.07;121.07;;;11.20;1.00;;;;;;5007313;28;20113;-84
2023/04/25 10:08:01;;;;;;;135.10;125.57;;;11.40;1.00;;;;;;4986313;28;20073;-84
2023/04/25 10:10:29;;;;;;;88.57;82.03;;;12.90;1.00;;;;;;5004957;28;20132;-84
2023/04/25 10:12:55;;;;;;;112.28;103.95;;;11.10;99.90;;;;;;4989023;28;20034;-84
2023/04/25 10:15:22;;;;;;;113.82;105.22;;;12.80;99.90;;;;;;4990794;28;20281;-84
2023/04/25 10:17:49;;;;;;;211.95;198.13;;;11.60;1.00;;;;;;4992210;28;20042;-86
2023/04/25 10:20:15;;;;;;;233.90;218.95;;;11.10;99.90;;;;;;4987056;28;20038;-86
2023/04/25 10:22:45;;;;;;;229.52;214.68;;;11.10;99.90;;;;;;4994937;28;20041;-86
2023/04/25 10:25:12;;;;;;;177.13;165.75;;;11.20;99.90;;;;;;4996383;28;20091;-86
2023/04/25 10:27:39;;;;;;;213.68;200.20;;;11.20;99.90;;;;;;4993621;28;20517;-86
2023/04/25 10:30:14;;;;;;;222.32;207.93;;;11.30;99.90;;;;;;5002617;28;20425;-86
2023/04/25 10:32:41;;;;;;;202.95;190.05;;;11.20;99.90;;;;;;4987691;28;20066;-86
2023/04/25 10:35:16;;;;;;;196.65;184.23;;;11.30;99.90;;;;;;4992632;28;20506;-86
2023/04/25 10:38:05;;;;;;;183.80;172.27;;;11.40;99.90;;;;;;5002052;28;20462;-86
2023/04/25 10:40:32;;;;;;;168.98;157.35;;;11.20;99.90;;;;;;4980079;28;20121;-85
2023/04/25 10:43:33;;;;;;;247.23;231.63;;;12.40;99.90;;;;;;4993073;28;20076;-86
2023/04/25 10:46:00;;;;;;;135.93;126.30;;;10.50;99.90;;;;;;4987323;28;20044;-85
2023/04/25 10:48:30;;;;;;;270.98;253.10;;;10.30;99.90;;;;;;4988138;28;20383;-84
2023/04/25 10:51:16;;;;;;;122.10;112.70;;;10.80;99.90;;;;;;5004215;28;20057;-84
2023/04/25 10:53:44;;;;;;;234.27;217.88;;;9.20;99.90;;;;;;5004322;28;20421;-85
2023/04/25 10:56:21;;;;;;;251.75;235.40;;;9.30;1.00;;;;;;4993883;28;20081;-85
2023/04/25 10:58:47;;;;;;;226.75;212.52;;;9.90;1.00;;;;;;4989542;28;20529;-85
2023/04/25 11:01:14;;;;;;;245.05;229.05;;;10.90;1.00;;;;;;4985534;28;20041;-86
2023/04/25 11:03:42;;;;;;;250.80;234.52;;;10.40;1.00;;;;;;4990583;28;20057;-85
2023/04/25 11:06:22;;;;;;;220.35;206.10;;;11.40;1.00;;;;;;4976073;28;20522;-85
2023/04/25 11:08:50;;;;;;;249.00;232.38;;;10.20;1.00;;;;;;5006318;28;20041;-85
2023/04/25 11:11:17;;;;;;;215.55;201.60;;;12.30;1.00;;;;;;4990645;28;20045;-85
2023/04/25 11:13:43;;;;;;;230.93;216.45;;;10.70;1.00;;;;;;4999678;28;20076;-85
2023/04/25 11:16:09;;;;;;;199.63;186.32;;;11.70;99.90;;;;;;4984787;28;20168;-84
2023/04/25 11:18:35;;;;;;;215.80;201.43;;;10.60;99.90;;;;;;4982707;28;20050;-85
2023/04/25 11:21:02;;;;;;;235.10;220.38;;;10.80;1.00;;;;;;4975107;28;20038;-86
2023/04/25 11:23:30;;;;;;;191.10;177.90;;;10.80;1.00;;;;;;5007830;28;20061;-85
2023/04/25 11:25:56;;;;;;;191.55;178.07;;;10.70;1.00;;;;;;4980003;28;20049;-85
2023/04/25 11:28:22;;;;;;;208.40;195.07;;;10.80;99.90;;;;;;4993923;28;20034;-86
2023/04/25 11:30:52;;;;;;;195.68;182.93;;;10.80;99.90;;;;;;4996606;28;20044;-86
2023/04/25 11:33:18;;;;;;;269.95;252.95;;;10.80;99.90;;;;;;5008705;28;20421;-86
2023/04/25 11:35:43;;;;;;;213.20;199.60;;;11.00;99.90;;;;;;4976551;28;20046;-86
2023/04/25 11:38:10;;;;;;;179.85;168.13;;;10.80;99.90;;;;;;5003836;28;20056;-85
2023/04/25 11:40:36;;;;;;;214.95;201.52;;;10.70;99.90;;;;;;4986829;28;20045;-84
2023/04/25 11:43:01;;;;;;;217.15;203.35;;;10.70;99.90;;;;;;4997004;28;20042;-84
2023/04/25 11:45:28;;;;;;;256.48;239.88;;;10.90;99.90;;;;;;4991973;28;20045;-86
2023/04/25 11:47:54;;;;;;;204.73;191.05;;;11.00;99.90;;;;;;4977565;28;20053;-86
2023/04/25 11:50:20;;;;;;;220.45;206.55;;;10.90;99.90;;;;;;4974538;28;20038;-84
2023/04/25 11:52:47;;;;;;;167.60;156.57;;;12.70;99.90;;;;;;5000776;28;20038;-85
2023/04/25 11:55:15;;;;;;;166.07;155.15;;;12.40;99.90;;;;;;4988789;28;20041;-86
2023/04/25 11:57:42;;;;;;;201.80;188.95;;;11.00;99.90;;;;;;4990358;28;20125;-86
2023/04/25 12:00:13;;;;;;;208.55;195.80;;;10.70;99.90;;;;;;4991169;28;20046;-86
2023/04/25 12:02:47;;;;;;;216.13;202.38;;;10.50;99.90;;;;;;5007416;28;20454;-85
2023/04/25 12:05:15;;;;;;;188.57;177.18;;;10.30;99.90;;;;;;4978530;28;20042;-86
2023/04/25 12:07:42;;;;;;;251.77;236.43;;;10.20;99.90;;;;;;4998230;28;20144;-86
2023/04/25 12:10:10;;;;;;;220.35;206.55;;;10.20;99.90;;;;;;4973259;28;20046;-86
2023/04/25 12:12:36;;;;;;;261.25;244.38;;;10.40;99.90;;;;;;4981801;28;20038;-85
2023/04/25 12:15:09;;;;;;;259.10;242.77;;;10.60;99.90;;;;;;4989917;28;20120;-85
2023/04/25 12:17:37;;;;;;;263.52;246.85;;;10.80;99.90;;;;;;4974195;28;20038;-85
2023/04/25 12:20:08;;;;;;;249.32;233.10;;;10.70;99.90;;;;;;4982402;28;20046;-86
2023/04/25 12:22:34;;;;;;;296.00;277.00;;;10.60;99.90;;;;;;5002714;28;20045;-85
2023/04/25 12:25:00;;;;;;;263.55;246.70;;;10.80;99.90;;;;;;4989500;28;20089;-84